Time;durP1;ratioP1;P1;durP2;ratioP2;P2;SDS_P1;SDS_P2;PMS_P1;PMS_P2;Temp;Humidity;BMP_temperature;BMP_pressure;BME280_temperature;BME280_humidity;BME280_pressure;Samples;Min_cycle;Max_cycle;Signal;HPM_P1;HPM_P2
2021/04/12 00:00:22;;;;;;;4.40;2.30;;;;;;;1.64;70.55;100916.66;10352673;28;20733;-74
2021/04/12 00:05:31;;;;;;;3.27;2.27;;;;;;;1.59;70.73;100923.88;10352532;28;20234;-75
2021/04/12 00:10:39;;;;;;;4.30;2.37;;;;;;;1.57;70.90;100915.16;10353253;28;20242;-75
2021/04/12 00:15:47;;;;;;;2.87;2.47;;;;;;;1.36;71.23;100922.06;10355101;28;20308;-74
2021/04/12 00:20:55;;;;;;;4.33;1.97;;;;;;;1.34;71.25;100905.34;10354778;28;21484;-74
2021/04/12 00:26:06;;;;;;;4.27;2.60;;;;;;;1.49;71.03;100918.94;10353629;28;20257;-75
2021/04/12 00:31:13;;;;;;;4.23;2.53;;;;;;;1.45;71.04;100914.66;10367531;28;20975;-75
2021/04/12 00:36:24;;;;;;;3.13;2.37;;;;;;;1.38;71.04;100926.38;10353772;28;20246;-74
2021/04/12 00:42:01;;;;;;;2.87;2.17;;;;;;;1.17;71.64;100933.25;10353363;28;21518;-74
2021/04/12 00:47:17;;;;;;;4.77;2.37;;;;;;;1.16;71.72;100942.13;10351939;28;20242;-74
2021/04/12 00:52:34;;;;;;;3.00;2.70;;;;;;;1.17;71.80;100941.19;10366879;28;20273;-74
2021/04/12 00:57:53;;;;;;;5.90;2.60;;;;;;;1.26;71.91;100947.94;10352649;28;20316;-75
2021/04/12 01:03:36;;;;;;;2.93;2.50;;;;;;;1.32;71.48;100952.19;10354126;28;20234;-75
2021/04/12 01:09:04;;;;;;;6.10;3.00;;;;;;;1.24;71.74;100950.66;10283771;28;20230;-74
2021/04/12 01:14:28;;;;;;;4.63;2.90;;;;;;;1.30;71.34;100946.09;10368689;28;20990;-75
2021/04/12 01:20:04;;;;;;;3.37;2.50;;;;;;;1.23;71.75;100945.41;10345039;28;20241;-75
2021/04/12 01:25:31;;;;;;;4.30;2.77;;;;;;;1.16;71.56;100943.91;10310360;28;20235;-74
2021/04/12 01:31:13;;;;;;;7.77;3.20;;;;;;;1.08;71.73;100961.81;10310491;28;20329;-74
2021/04/12 01:36:36;;;;;;;4.97;2.50;;;;;;;1.15;71.52;100964.22;10310042;28;20723;-74
2021/04/12 01:41:52;;;;;;;4.43;2.63;;;;;;;1.13;71.62;100978.41;10351749;28;20234;-74
2021/04/12 01:47:05;;;;;;;7.60;2.73;;;;;;;1.10;71.60;100982.03;10319755;28;20703;-74
2021/04/12 01:52:24;;;;;;;7.10;3.40;;;;;;;1.03;71.65;100983.97;10319211;28;20257;-75
2021/04/12 01:57:39;;;;;;;7.70;2.60;;;;;;;1.01;71.66;100991.09;10317235;28;20374;-75
2021/04/12 02:02:50;;;;;;;8.90;2.80;;;;;;;0.94;71.79;100994.88;10351521;28;20241;-74
2021/04/12 02:08:15;;;;;;;5.97;2.60;;;;;;;0.87;71.69;100998.59;10311030;28;20261;-74
2021/04/12 02:13:36;;;;;;;5.83;3.10;;;;;;;0.95;71.92;101007.16;10351321;28;20770;-74
2021/04/12 02:18:58;;;;;;;5.43;2.77;;;;;;;1.04;71.67;101014.84;10350227;28;20238;-75
2021/04/12 02:24:10;;;;;;;6.73;2.80;;;;;;;1.11;71.29;101023.44;10347632;28;20234;-74
2021/04/12 02:29:31;;;;;;;9.07;3.27;;;;;;;1.03;71.44;101023.66;10349416;28;20234;-74
2021/04/12 02:34:40;;;;;;;5.47;3.27;;;;;;;1.04;71.31;101038.66;10349767;28;21494;-74
2021/04/12 02:39:55;;;;;;;4.10;3.10;;;;;;;0.96;71.32;101045.06;10350546;28;20226;-73
2021/04/12 02:45:27;;;;;;;4.33;2.83;;;;;;;0.81;71.76;101041.97;10348764;28;20225;-74
2021/04/12 02:51:03;;;;;;;4.23;3.10;;;;;;;0.77;72.16;101044.78;10345703;28;20380;-74
2021/04/12 02:56:17;;;;;;;5.03;3.30;;;;;;;0.74;72.29;101051.03;10349324;28;20656;-72
2021/04/12 03:01:36;;;;;;;6.53;2.90;;;;;;;0.75;72.11;101031.59;10353553;28;20234;-75
2021/04/12 03:07:31;;;;;;;7.50;3.10;;;;;;;0.77;72.36;101044.78;10356977;28;20304;-76
2021/04/12 03:13:02;;;;;;;7.30;3.50;;;;;;;0.80;72.08;101031.47;10331481;28;20246;-75
2021/04/12 03:18:22;;;;;;;4.63;2.97;;;;;;;0.78;72.00;101039.44;10351586;28;20234;-73
2021/04/12 03:23:41;;;;;;;4.97;3.03;;;;;;;0.72;72.31;101046.69;10353810;28;20242;-73
2021/04/12 03:28:57;;;;;;;5.33;3.40;;;;;;;0.78;72.45;101063.22;10354610;28;20733;-74
2021/04/12 03:34:09;;;;;;;6.40;3.10;;;;;;;0.78;72.45;101065.00;10352597;28;20745;-72
2021/04/12 03:39:16;;;;;;;12.57;3.80;;;;;;;0.78;72.43;101059.72;10352140;28;20238;-72
2021/04/12 03:44:31;;;;;;;9.97;4.23;;;;;;;0.70;72.32;101069.66;10351670;28;20226;-73
2021/04/12 03:50:01;;;;;;;5.77;3.97;;;;;;;0.74;72.73;101073.94;10354070;28;20233;-74
2021/04/12 03:55:31;;;;;;;6.13;4.10;;;;;;;0.71;72.65;101080.19;10353190;28;20238;-75
2021/04/12 04:00:51;;;;;;;11.50;4.40;;;;;;;0.69;72.65;101076.75;10313041;28;20231;-74
2021/04/12 04:06:19;;;;;;;7.90;4.83;;;;;;;0.69;72.62;101075.88;10352195;28;20242;-74
2021/04/12 04:11:43;;;;;;;8.73;4.63;;;;;;;0.62;72.52;101080.47;10354395;28;20242;-75
2021/04/12 04:17:02;;;;;;;11.53;4.70;;;;;;;0.57;72.81;101077.06;10349557;28;20240;-74
2021/04/12 04:22:26;;;;;;;12.03;4.63;;;;;;;0.47;72.94;101089.69;10351316;28;20233;-75
2021/04/12 04:28:02;;;;;;;7.77;4.90;;;;;;;0.54;73.06;101093.88;10349666;28;20259;-74
2021/04/12 04:33:21;;;;;;;9.93;5.03;;;;;;;0.60;73.20;101095.50;10340752;28;20238;-75
2021/04/12 04:38:53;;;;;;;13.37;5.30;;;;;;;0.56;73.13;101107.94;10352483;28;20271;-73
2021/04/12 04:44:25;;;;;;;11.47;5.33;;;;;;;0.48;73.18;101114.34;10351031;28;20234;-73
2021/04/12 04:50:03;;;;;;;10.07;5.33;;;;;;;0.39;73.44;101113.69;10350201;28;20230;-75
2021/04/12 04:55:23;;;;;;;7.50;5.40;;;;;;;0.35;73.53;101114.66;10349687;28;20238;-75
2021/04/12 05:00:39;;;;;;;11.67;5.43;;;;;;;0.30;73.56;101128.91;10350402;28;20234;-75
2021/04/12 05:05:58;;;;;;;10.60;5.63;;;;;;;0.43;73.41;101143.56;10348936;28;20484;-73
2021/04/12 05:11:24;;;;;;;9.60;5.27;;;;;;;0.46;72.99;101150.53;10347817;28;20583;-73
2021/04/12 05:16:37;;;;;;;6.73;4.83;;;;;;;0.31;73.52;101157.09;10349589;28;20242;-73
2021/04/12 05:22:05;;;;;;;6.77;5.20;;;;;;;0.46;73.33;101151.41;10348117;28;20348;-74
2021/04/12 05:27:37;;;;;;;7.97;5.93;;;;;;;0.41;73.12;101155.06;10304746;28;21398;-75
2021/04/12 05:32:46;;;;;;;11.07;6.83;;;;;;;0.54;73.13;101161.75;10318191;28;20668;-75
2021/04/12 05:38:26;;;;;;;10.00;6.53;;;;;;;0.69;72.49;101174.59;10306550;28;20842;-75
2021/04/12 05:43:47;;;;;;;10.10;5.80;;;;;;;0.60;72.62;101188.94;10306993;28;20250;-74
2021/04/12 05:49:00;;;;;;;8.50;6.50;;;;;;;0.92;72.16;101199.53;10306422;28;20711;-74
2021/04/12 05:54:17;;;;;;;10.10;6.37;;;;;;;1.19;71.13;101211.97;10347559;28;20769;-74
2021/04/12 05:59:40;;;;;;;10.20;6.60;;;;;;;1.19;70.45;101213.75;10297513;28;20250;-75
2021/04/12 06:04:52;;;;;;;11.23;5.63;;;;;;;1.27;70.56;101219.69;10339363;28;20230;-74
2021/04/12 06:10:32;;;;;;;11.43;5.70;;;;;;;1.27;71.04;101230.28;10299854;28;20341;-76
2021/04/12 06:16:01;;;;;;;9.20;6.50;;;;;;;1.48;70.52;101229.66;10326886;28;20242;-76
2021/04/12 06:21:21;;;;;;;12.07;5.80;;;;;;;1.87;70.02;101234.66;10345193;28;20587;-76
2021/04/12 06:27:06;;;;;;;9.33;5.13;;;;;;;2.05;69.20;101243.78;10345847;28;20958;-76
2021/04/12 06:32:42;;;;;;;10.37;5.67;;;;;;;2.30;68.90;101237.69;10347581;28;20245;-73
2021/04/12 06:38:18;;;;;;;9.60;5.43;;;;;;;1.92;69.53;101232.72;10351998;28;20241;-75
2021/04/12 06:44:14;;;;;;;9.37;5.30;;;;;;;2.31;68.69;101240.31;10303050;28;20250;-76
2021/04/12 06:49:52;;;;;;;9.67;5.47;;;;;;;2.70;68.55;101245.22;10352346;28;20230;-75
2021/04/12 06:55:18;;;;;;;8.13;4.73;;;;;;;2.69;67.91;101246.13;10311896;28;20239;-74
2021/04/12 07:00:56;;;;;;;8.43;4.57;;;;;;;2.80;67.34;101267.00;10308703;28;20242;-73
2021/04/12 07:06:40;;;;;;;7.30;4.67;;;;;;;2.74;67.52;101265.44;10309599;28;20535;-75
2021/04/12 07:12:02;;;;;;;9.77;4.57;;;;;;;3.29;66.44;101259.91;10304940;28;20296;-74
2021/04/12 07:17:42;;;;;;;8.23;4.30;;;;;;;3.21;65.71;101285.88;10308732;28;20239;-74
2021/04/12 07:23:20;;;;;;;7.68;4.40;;;;;;;3.59;65.30;101284.47;10299145;28;20239;-75
2021/04/12 07:29:12;;;;;;;7.53;4.00;;;;;;;3.90;65.13;101293.97;10353184;28;20237;-75
2021/04/12 07:34:47;;;;;;;6.90;3.93;;;;;;;3.78;63.45;101289.09;10310904;28;20289;-74
2021/04/12 07:40:22;;;;;;;6.80;3.73;;;;;;;4.01;64.26;101297.06;10311230;28;20239;-75
2021/04/12 07:46:07;;;;;;;10.80;3.65;;;;;;;4.27;63.72;101300.47;10332314;28;20250;-76
2021/04/12 07:51:40;;;;;;;4.18;2.88;;;;;;;4.73;61.94;101311.91;10350059;28;20284;-75
2021/04/12 07:57:27;;;;;;;6.07;3.47;;;;;;;4.87;60.36;101312.16;10310798;28;20261;-75
2021/04/12 08:02:57;;;;;;;5.05;3.28;;;;;;;5.16;59.11;101315.44;10302852;28;20238;-75
2021/04/12 08:08:40;;;;;;;5.63;3.42;;;;;;;4.76;61.89;101314.44;10309034;28;20241;-75
2021/04/12 08:14:36;;;;;;;4.40;3.20;;;;;;;5.38;58.33;101328.66;10360649;28;20238;-76
2021/04/12 08:20:23;;;;;;;4.45;3.17;;;;;;;6.66;56.43;101329.72;10349008;28;20241;-75
2021/04/12 08:26:15;;;;;;;2.15;1.95;;;;;;;5.47;57.56;101330.91;10350284;28;20242;-76
2021/04/12 08:31:53;;;;;;;2.60;2.08;;;;;;;4.59;57.26;101333.75;10342113;28;20269;-74
2021/04/12 08:37:11;;;;;;;3.67;1.90;;;;;;;4.91;57.43;101348.41;10344138;28;20233;-74
2021/04/12 08:42:38;;;;;;;2.60;2.28;;;;;;;6.44;54.87;101340.59;10348926;28;20615;-71
2021/04/12 08:48:23;;;;;;;3.35;2.30;;;;;;;6.20;54.66;101339.09;10347621;28;20233;-76
2021/04/12 08:53:43;;;;;;;2.90;2.08;;;;;;;5.49;55.35;101347.72;10340983;28;20234;-74
2021/04/12 08:59:06;;;;;;;2.20;1.88;;;;;;;6.37;53.90;101356.06;10347784;28;20629;-75
2021/04/12 09:04:42;;;;;;;2.63;2.20;;;;;;;5.69;55.81;101358.34;10346158;28;20237;-75
2021/04/12 09:10:01;;;;;;;3.88;2.20;;;;;;;6.51;54.71;101365.22;10348213;28;20241;-75
2021/04/12 09:15:32;;;;;;;2.67;2.30;;;;;;;4.97;57.42;101369.44;10332029;28;20242;-75
2021/04/12 09:20:46;;;;;;;3.83;2.45;;;;;;;4.67;57.58;101370.72;10319539;28;20235;-74
2021/04/12 09:26:11;;;;;;;3.97;2.22;;;;;;;5.57;56.04;101380.22;10309569;28;20238;-75
2021/04/12 09:31:32;;;;;;;2.50;2.03;;;;;;;5.73;53.35;101362.59;10311954;28;20246;-74
2021/04/12 09:36:55;;;;;;;5.22;2.13;;;;;;;6.31;54.20;101372.38;10308920;28;20258;-75
2021/04/12 09:42:33;;;;;;;5.28;2.45;;;;;;;7.63;49.89;101376.47;10312838;28;20678;-76
2021/04/12 09:48:01;;;;;;;2.63;1.70;;;;;;;9.23;46.15;101373.72;10351388;28;20611;-75
2021/04/12 09:53:28;;;;;;;2.45;1.83;;;;;;;7.89;51.05;101383.06;10365367;28;20241;-74
2021/04/12 09:59:06;;;;;;;2.55;1.73;;;;;;;6.56;51.31;101379.22;10350799;28;20231;-75
2021/04/12 10:04:37;;;;;;;2.53;1.85;;;;;;;7.05;51.42;101387.50;10318839;28;20242;-75
2021/04/12 10:09:47;;;;;;;3.97;1.80;;;;;;;6.68;50.95;101383.06;10322367;28;20356;-75
2021/04/12 10:14:54;;;;;;;2.08;1.88;;;;;;;6.96;49.64;101380.78;10373709;28;20234;-75
2021/04/12 10:20:00;;;;;;;5.30;2.15;;;;;;;7.59;50.05;101377.56;10359208;28;20318;-75
2021/04/12 10:25:08;;;;;;;5.07;2.15;;;;;;;8.57;46.74;101371.34;10356420;28;20261;-74
2021/04/12 10:30:13;;;;;;;1.65;1.30;;;;;;;8.81;43.09;101356.53;10347496;28;20241;-75
2021/04/12 10:35:21;;;;;;;2.40;1.70;;;;;;;8.73;44.86;101352.59;10342270;28;20590;-76
2021/04/12 10:40:27;;;;;;;4.75;1.50;;;;;;;7.51;45.51;101366.41;10356290;28;20237;-74
2021/04/12 10:45:32;;;;;;;3.95;1.45;;;;;;;6.28;48.63;101366.28;10352987;28;20881;-75
2021/04/12 10:50:50;;;;;;;2.40;1.10;;;;;;;7.08;44.58;101355.28;10356815;28;20235;-75
2021/04/12 10:55:59;;;;;;;1.48;1.10;;;;;;;9.79;39.72;101346.19;10358398;28;20230;-74
2021/04/12 11:01:05;;;;;;;2.30;1.10;;;;;;;10.67;36.99;101338.78;10357533;28;20260;-76
2021/04/12 11:06:43;;;;;;;3.00;1.40;;;;;;;8.75;39.26;101342.63;10354936;28;20944;-76
2021/04/12 11:11:53;;;;;;;2.65;1.17;;;;;;;6.97;46.29;101360.31;10356310;28;20329;-76
2021/04/12 11:17:00;;;;;;;4.03;1.50;;;;;;;5.52;52.88;101394.69;10354722;28;20858;-75
2021/04/12 11:22:13;;;;;;;1.00;0.90;;;;;;;4.01;56.05;101421.16;10356473;28;20229;-75
2021/04/12 11:27:56;;;;;;;2.25;0.90;;;;;;;3.24;59.02;101413.25;10355784;28;20238;-74
2021/04/12 11:33:16;;;;;;;1.63;1.30;;;;;;;3.34;58.03;101411.16;10357412;28;20258;-74
2021/04/12 11:38:24;;;;;;;1.37;0.83;;;;;;;3.57;54.16;101402.38;10354809;28;20249;-75
2021/04/12 11:43:29;;;;;;;2.65;0.90;;;;;;;4.98;50.86;101403.13;10353356;28;20252;-74
2021/04/12 11:48:46;;;;;;;1.13;0.90;;;;;;;7.21;45.34;101403.59;10354831;28;20245;-75
2021/04/12 11:53:54;;;;;;;0.60;0.60;;;;;;;6.47;44.29;101409.84;10352283;28;20739;-74
2021/04/12 11:59:03;;;;;;;0.70;0.70;;;;;;;5.80;45.61;101410.31;10353807;28;20242;-76
2021/04/12 12:04:16;;;;;;;0.90;0.90;;;;;;;6.50;46.11;101412.41;10352423;28;20326;-75
2021/04/12 12:09:38;;;;;;;0.80;0.80;;;;;;;9.45;39.99;101407.28;10364715;28;20249;-76
2021/04/12 12:14:45;;;;;;;0.80;0.80;;;;;;;10.78;39.61;101398.06;10355790;28;20238;-76
2021/04/12 12:19:52;;;;;;;3.20;0.80;;;;;;;11.10;38.26;101405.81;10352913;28;20253;-74
2021/04/12 12:25:04;;;;;;;1.35;1.20;;;;;;;11.66;37.84;101399.28;10352053;28;20238;-76
2021/04/12 12:30:13;;;;;;;2.00;1.10;;;;;;;12.35;37.79;101398.94;10351293;28;20222;-76
2021/04/12 12:35:34;;;;;;;1.50;1.20;;;;;;;13.48;35.91;101392.28;10353358;28;20253;-75
2021/04/12 12:40:45;;;;;;;2.47;1.40;;;;;;;14.25;33.96;101384.38;10349575;28;20241;-76
2021/04/12 12:45:48;;;;;;;2.35;1.38;;;;;;;13.24;36.10;101385.06;10350862;28;20234;-76
2021/04/12 12:50:53;;;;;;;3.05;1.50;;;;;;;13.55;35.43;101379.16;10349144;28;20242;-76
2021/04/12 12:56:00;;;;;;;2.58;1.50;;;;;;;11.70;38.31;101373.84;10351868;28;20226;-76
2021/04/12 13:01:04;;;;;;;2.35;1.40;;;;;;;8.98;41.02;101385.03;10349327;28;20234;-76
2021/04/12 13:06:16;;;;;;;2.40;1.55;;;;;;;10.01;41.25;101367.22;10351647;28;20230;-75
2021/04/12 13:11:35;;;;;;;1.85;1.75;;;;;;;9.98;41.74;101391.56;10362297;28;20254;-74
2021/04/12 13:16:37;;;;;;;3.25;1.88;;;;;;;11.25;38.37;101402.13;10349180;28;20269;-75
2021/04/12 13:21:46;;;;;;;4.43;1.70;;;;;;;9.84;39.94;101405.81;10353022;28;20232;-76
2021/04/12 13:26:54;;;;;;;1.92;1.48;;;;;;;8.80;41.33;101403.06;10348288;28;20236;-76
2021/04/12 13:32:00;;;;;;;2.78;1.95;;;;;;;7.44;45.94;101418.47;10349594;28;20285;-76
2021/04/12 13:37:12;;;;;;;2.60;1.45;;;;;;;6.34;50.72;101406.06;10348483;28;20234;-76
2021/04/12 13:42:21;;;;;;;2.50;2.30;;;;;;;2.55;69.17;101471.19;10350452;28;20245;-74
2021/04/12 13:47:33;;;;;;;2.75;2.00;;;;;;;0.58;77.68;101473.69;10355677;28;20229;-74
2021/04/12 13:52:44;;;;;;;2.47;2.20;;;;;;;0.84;80.79;101496.88;10367153;28;20256;-76
2021/04/12 13:57:51;;;;;;;3.87;2.60;;;;;;;1.62;80.17;101504.72;10368223;28;20286;-74
2021/04/12 14:03:00;;;;;;;4.53;3.63;;;;;;;2.29;82.47;101499.34;10390254;28;20718;-74
2021/04/12 14:08:16;;;;;;;7.73;4.77;;;;;;;5.30;80.06;101496.00;10390793;28;20629;-74
2021/04/12 14:13:25;;;;;;;10.05;5.50;;;;;;;6.96;74.62;101490.31;10387095;28;20241;-75
2021/04/12 14:18:36;;;;;;;3.45;2.78;;;;;;;6.63;71.01;101488.28;10312811;28;20234;-74
2021/04/12 14:23:44;;;;;;;3.75;2.67;;;;;;;6.95;68.46;101482.41;10305874;28;20243;-74
2021/04/12 14:28:50;;;;;;;3.92;2.50;;;;;;;7.91;65.27;101488.22;10305408;28;20668;-74
2021/04/12 14:34:00;;;;;;;3.47;2.33;;;;;;;7.73;62.58;101476.69;10306124;28;20889;-74
2021/04/12 14:39:08;;;;;;;4.88;2.45;;;;;;;8.72;65.35;101476.75;10306421;28;20238;-74
2021/04/12 14:44:16;;;;;;;2.63;2.20;;;;;;;8.44;59.81;101470.22;10308451;28;20235;-74
2021/04/12 14:49:27;;;;;;;2.25;2.00;;;;;;;8.66;56.82;101472.59;10341383;28;20230;-74
2021/04/12 14:54:34;;;;;;;3.28;2.72;;;;;;;9.26;62.01;101477.25;10352738;28;20238;-74
2021/04/12 14:59:43;;;;;;;2.42;2.22;;;;;;;9.69;57.97;101472.03;10352085;28;20234;-74
2021/04/12 15:04:45;;;;;;;3.95;2.92;;;;;;;9.47;53.49;101475.13;10352729;28;20261;-74
2021/04/12 15:09:52;;;;;;;4.70;2.67;;;;;;;8.06;55.13;101478.50;10353326;28;20284;-74
2021/04/12 15:15:02;;;;;;;4.22;2.75;;;;;;;8.86;60.37;101471.50;10354955;28;20230;-75
2021/04/12 15:20:10;;;;;;;3.92;2.60;;;;;;;8.49;57.04;101478.91;10313283;28;20235;-75
2021/04/12 15:25:19;;;;;;;3.92;2.38;;;;;;;7.21;55.73;101478.44;10361552;28;20242;-75
2021/04/12 15:30:33;;;;;;;3.05;2.75;;;;;;;5.85;58.19;101485.66;10368084;28;21490;-75
2021/04/12 15:35:40;;;;;;;3.17;2.50;;;;;;;5.33;58.05;101487.88;10360659;28;20376;-75
2021/04/12 15:40:47;;;;;;;3.97;2.70;;;;;;;6.48;61.95;101486.34;10352006;28;20283;-74
2021/04/12 15:46:00;;;;;;;3.65;2.47;;;;;;;7.43;56.09;101491.59;10354494;28;20324;-75
2021/04/12 15:51:10;;;;;;;2.97;2.63;;;;;;;7.16;55.00;101493.81;10354853;28;20234;-75
2021/04/12 15:56:23;;;;;;;3.05;2.50;;;;;;;6.14;57.97;101505.69;10350690;28;20246;-75
2021/04/12 16:01:31;;;;;;;3.67;2.83;;;;;;;5.58;58.16;101525.88;10351216;28;20617;-75
2021/04/12 16:06:35;;;;;;;2.83;2.55;;;;;;;6.06;61.74;101543.41;10342162;28;20238;-74
2021/04/12 16:11:46;;;;;;;3.08;2.13;;;;;;;6.70;61.60;101544.09;10349041;28;20242;-74
2021/04/12 16:16:51;;;;;;;3.83;3.13;;;;;;;7.52;60.76;101547.28;10350640;28;20229;-74
2021/04/12 16:22:00;;;;;;;2.45;1.92;;;;;;;8.29;56.00;101551.38;10356058;28;20241;-74
2021/04/12 16:27:11;;;;;;;1.83;1.73;;;;;;;8.93;57.22;101549.72;10353734;28;20723;-74
2021/04/12 16:32:24;;;;;;;2.45;2.25;;;;;;;8.81;51.51;101551.28;10342885;28;20241;-74
2021/04/12 16:37:31;;;;;;;3.08;2.78;;;;;;;8.73;60.22;101558.88;10348907;28;20254;-74
2021/04/12 16:42:38;;;;;;;2.75;2.17;;;;;;;9.42;52.19;101547.81;10349219;28;20233;-74
2021/04/12 16:47:43;;;;;;;3.22;2.30;;;;;;;8.78;50.86;101546.09;10349333;28;20234;-74
2021/04/12 16:52:52;;;;;;;3.65;2.30;;;;;;;8.66;50.15;101546.75;10350859;28;20279;-74
2021/04/12 16:57:57;;;;;;;2.85;2.17;;;;;;;8.01;52.16;101562.66;10354630;28;20227;-74
2021/04/12 17:03:12;;;;;;;3.88;2.70;;;;;;;7.56;52.84;101553.34;10379759;28;20375;-74
2021/04/12 17:08:21;;;;;;;4.85;3.83;;;;;;;6.88;52.38;101553.94;10387886;28;20263;-74
2021/04/12 17:13:28;;;;;;;3.95;3.22;;;;;;;6.32;53.53;101560.03;10353437;28;20238;-75
2021/04/12 17:18:37;;;;;;;6.00;3.55;;;;;;;6.02;54.54;101556.94;10346765;28;20230;-74
2021/04/12 17:24:07;;;;;;;6.85;3.42;;;;;;;6.23;53.66;101552.47;10346640;28;20326;-74
2021/04/12 17:29:16;;;;;;;3.85;2.65;;;;;;;5.82;51.75;101550.66;10345968;28;20234;-74
2021/04/12 17:34:24;;;;;;;4.18;2.95;;;;;;;5.60;52.93;101557.81;10346152;28;20631;-74
2021/04/12 17:39:31;;;;;;;3.58;2.80;;;;;;;5.12;53.93;101565.06;10347202;28;20250;-74
2021/04/12 17:44:39;;;;;;;4.32;2.80;;;;;;;4.88;54.52;101564.19;10347009;28;20227;-74
2021/04/12 17:49:47;;;;;;;2.97;2.78;;;;;;;4.70;54.73;101576.41;10358299;28;20316;-74
2021/04/12 17:55:02;;;;;;;7.78;3.17;;;;;;;4.44;56.68;101582.69;10347807;28;20241;-74
2021/04/12 18:00:08;;;;;;;4.00;3.47;;;;;;;4.15;57.54;101592.59;10345298;28;20230;-73
2021/04/12 18:05:15;;;;;;;6.25;3.70;;;;;;;3.89;57.83;101597.91;10346477;28;20241;-74
2021/04/12 18:10:22;;;;;;;7.43;3.58;;;;;;;3.88;57.49;101598.84;10346187;28;20959;-74
2021/04/12 18:15:30;;;;;;;5.10;3.42;;;;;;;3.85;58.02;101597.16;10344855;28;20226;-73
2021/04/12 18:20:43;;;;;;;5.67;3.50;;;;;;;3.76;58.31;101600.16;10345841;28;20237;-73
2021/04/12 18:25:52;;;;;;;5.50;4.03;;;;;;;3.73;58.58;101597.59;10351818;28;20231;-74
2021/04/12 18:31:00;;;;;;;3.73;3.03;;;;;;;3.86;58.13;101611.31;10351522;28;21498;-74
2021/04/12 18:36:06;;;;;;;3.47;2.93;;;;;;;3.72;58.86;101617.09;10363495;28;20238;-73
2021/04/12 18:41:15;;;;;;;3.97;3.47;;;;;;;3.48;59.47;101629.38;10356300;28;20234;-75
2021/04/12 18:46:30;;;;;;;5.63;3.53;;;;;;;3.58;59.63;101628.19;10353249;28;20610;-74
2021/04/12 18:51:42;;;;;;;5.97;3.50;;;;;;;3.53;59.47;101637.22;10352933;28;20240;-72
2021/04/12 18:56:48;;;;;;;4.53;3.58;;;;;;;3.53;59.34;101643.38;10384369;28;20241;-74
2021/04/12 19:02:06;;;;;;;4.30;3.50;;;;;;;3.37;59.69;101643.00;10340085;28;20459;-73
2021/04/12 19:07:31;;;;;;;5.83;3.70;;;;;;;3.34;59.58;101652.84;10350251;28;21801;-74
2021/04/12 19:12:35;;;;;;;4.75;3.20;;;;;;;3.01;60.15;101655.59;10337857;28;20668;-72
2021/04/12 19:17:51;;;;;;;4.97;3.40;;;;;;;2.96;60.31;101662.81;10347158;28;20598;-74
2021/04/12 19:23:10;;;;;;;4.80;3.30;;;;;;;2.89;60.50;101663.94;10348597;28;20883;-74
2021/04/12 19:28:18;;;;;;;5.93;3.70;;;;;;;2.67;61.30;101672.50;10331976;28;20237;-73
2021/04/12 19:33:29;;;;;;;5.33;4.03;;;;;;;2.57;61.57;101674.50;10347817;28;20245;-74
2021/04/12 19:39:18;;;;;;;5.97;3.87;;;;;;;2.62;61.88;101669.09;10344515;28;20230;-74
2021/04/12 19:44:28;;;;;;;4.93;3.80;;;;;;;2.60;61.72;101676.22;10335692;28;20239;-73
2021/04/12 19:49:36;;;;;;;4.37;2.73;;;;;;;2.53;61.13;101680.84;10341103;28;20439;-74
2021/04/12 19:54:45;;;;;;;4.63;3.20;;;;;;;2.68;61.25;101676.00;10345688;28;21743;-74
2021/04/12 19:59:51;;;;;;;4.47;3.10;;;;;;;2.64;60.73;101674.38;10377373;28;20233;-73
2021/04/12 20:05:02;;;;;;;4.17;3.13;;;;;;;2.56;60.60;101678.09;10388601;28;20237;-74
2021/04/12 20:10:20;;;;;;;5.17;3.27;;;;;;;2.51;61.08;101679.09;10348235;28;20230;-72
2021/04/12 20:15:26;;;;;;;7.87;3.47;;;;;;;2.45;61.21;101679.25;10349053;28;20250;-73
2021/04/12 20:20:32;;;;;;;6.90;3.80;;;;;;;2.40;61.04;101680.25;10348563;28;20229;-72
2021/04/12 20:25:37;;;;;;;5.20;3.27;;;;;;;2.51;60.72;101692.34;10348398;28;20235;-73
2021/04/12 20:30:50;;;;;;;6.13;3.67;;;;;;;2.38;61.60;101690.00;10347714;28;20297;-72
2021/04/12 20:36:16;;;;;;;6.63;4.03;;;;;;;2.26;62.65;101690.34;10345269;28;20868;-72
2021/04/12 20:41:43;;;;;;;11.63;4.80;;;;;;;2.17;63.80;101688.81;10346106;28;20743;-73
2021/04/12 20:46:56;;;;;;;7.13;4.60;;;;;;;2.12;64.36;101690.69;10300901;28;20729;-73
2021/04/12 20:52:02;;;;;;;9.90;5.50;;;;;;;1.99;65.60;101693.69;10355815;28;20241;-74
2021/04/12 20:57:11;;;;;;;8.77;6.00;;;;;;;1.97;66.24;101692.84;10338712;28;20245;-74
2021/04/12 21:02:23;;;;;;;11.67;5.87;;;;;;;1.83;66.99;101702.00;10316622;28;20234;-73
2021/04/12 21:07:32;;;;;;;11.57;5.97;;;;;;;1.85;67.01;101707.28;10324192;28;20249;-73
2021/04/12 21:12:41;;;;;;;11.97;5.83;;;;;;;1.78;67.70;101713.59;10344989;28;20230;-74
2021/04/12 21:17:52;;;;;;;9.73;6.13;;;;;;;1.71;68.09;101719.06;10346065;28;20241;-73
2021/04/12 21:23:03;;;;;;;12.33;7.40;;;;;;;1.66;68.11;101715.63;10345822;28;20238;-74
2021/04/12 21:28:18;;;;;;;12.23;6.33;;;;;;;1.60;68.33;101734.31;10346853;28;20234;-73
2021/04/12 21:33:24;;;;;;;14.37;6.97;;;;;;;1.63;68.33;101730.75;10347131;28;20301;-73
2021/04/12 21:38:30;;;;;;;11.17;6.40;;;;;;;1.60;68.44;101731.69;10346431;28;20703;-73
2021/04/12 21:43:36;;;;;;;11.30;6.13;;;;;;;1.56;68.40;101727.34;10347789;28;20238;-73
2021/04/12 21:48:44;;;;;;;10.60;6.00;;;;;;;1.51;68.52;101734.53;10347383;28;20689;-74
2021/04/12 21:53:52;;;;;;;11.40;6.87;;;;;;;1.43;68.50;101742.66;10348705;28;20746;-74
2021/04/12 21:59:22;;;;;;;10.30;5.40;;;;;;;1.40;68.43;101739.16;10350575;28;20238;-74
2021/04/12 22:04:27;;;;;;;9.53;5.67;;;;;;;1.42;68.43;101743.53;10347708;28;20242;-74
2021/04/12 22:09:40;;;;;;;12.23;5.70;;;;;;;1.47;68.19;101749.59;10353203;28;20745;-74
2021/04/12 22:14:53;;;;;;;10.73;6.33;;;;;;;1.44;68.64;101744.38;10354461;28;20257;-72
2021/04/12 22:20:10;;;;;;;10.97;6.00;;;;;;;1.46;68.11;101744.34;10354131;28;20537;-74
2021/04/12 22:25:17;;;;;;;12.70;6.63;;;;;;;1.42;68.29;101751.47;10353413;28;20284;-74
2021/04/12 22:30:26;;;;;;;9.50;5.97;;;;;;;1.43;68.46;101749.72;10352633;28;20626;-74
2021/04/12 22:36:00;;;;;;;13.60;6.57;;;;;;;1.30;68.92;101750.88;10353853;28;20242;-73
2021/04/12 22:41:26;;;;;;;14.03;6.87;;;;;;;1.13;70.20;101754.75;10354722;28;20261;-74
2021/04/12 22:47:01;;;;;;;13.43;7.70;;;;;;;1.27;69.50;101754.47;10357376;28;20238;-72
2021/04/12 22:52:03;;;;;;;13.10;6.70;;;;;;;0.96;70.45;101760.38;10354853;28;20234;-72
2021/04/12 22:57:13;;;;;;;13.60;6.90;;;;;;;0.97;70.74;101758.59;10357339;28;20327;-74
2021/04/12 23:02:50;;;;;;;16.77;8.90;;;;;;;0.94;70.97;101756.00;10316786;28;20313;-72
2021/04/12 23:08:17;;;;;;;15.37;6.97;;;;;;;1.00;70.29;101759.38;10311068;28;20269;-72
2021/04/12 23:13:32;;;;;;;16.33;8.30;;;;;;;0.86;70.67;101763.22;10311637;28;20262;-74
2021/04/12 23:18:35;;;;;;;14.53;8.23;;;;;;;0.73;70.98;101765.19;10350711;28;20229;-74
2021/04/12 23:23:37;;;;;;;12.47;7.17;;;;;;;0.74;71.02;101770.47;10354593;28;20613;-74
2021/04/12 23:28:43;;;;;;;17.53;9.17;;;;;;;0.83;70.88;101774.72;10354231;28;20253;-74
2021/04/12 23:33:49;;;;;;;15.33;8.07;;;;;;;0.73;71.01;101776.66;10353522;28;20668;-74
2021/04/12 23:38:55;;;;;;;16.13;8.53;;;;;;;0.77;70.89;101778.34;10367949;28;20238;-74
2021/04/12 23:44:01;;;;;;;14.43;7.10;;;;;;;0.81;70.16;101773.88;10345712;28;20238;-74
2021/04/12 23:49:05;;;;;;;17.43;9.27;;;;;;;0.94;69.80;101766.59;10355618;28;20613;-74
2021/04/12 23:54:07;;;;;;;15.30;7.70;;;;;;;0.82;70.08;101768.56;10352862;28;20609;-74
2021/04/12 23:59:42;;;;;;;12.03;7.53;;;;;;;0.89;69.71;101771.97;10353223;28;20226;-74
